This is the latest recevied weather packets stored in our database for station/object SQ5OUZ-8. If no packets are shown the sender has not sent any weather packets the latest 10 day(s).
| Time | Temp. | Humidity | Pressure | Rain* | Wind** | Luminosity | Snow |
|---|---|---|---|---|---|---|---|
| 1777646544 | 25° C | 25% | 1024 hPa | - | - | - | - |
| 1777645429 | 24.44° C | 26% | 1024 hPa | - | - | - | - |
| 1777644377 | 22.78° C | 28% | 1025 hPa | - | - | - | - |
| 1777643331 | 25.56° C | 24% | 1024 hPa | - | - | - | - |
| 1777642168 | 26.67° C | 23% | 1024 hPa | - | - | - | - |
| 1777641033 | 27.78° C | 22% | 1024 hPa | - | - | - | - |
| 1777639990 | 24.44° C | 26% | 1025 hPa | - | - | - | - |
| 1777638858 | 24.44° C | 25% | 1025 hPa | - | - | - | - |
| 1777637662 | 23.33° C | 26% | 1025 hPa | - | - | - | - |
| 1777636476 | 25° C | 24% | 1025 hPa | - | - | - | - |
| 1777635334 | 25° C | 24% | 1025 hPa | - | - | - | - |
| 1777634378 | 26.11° C | 24% | 1025 hPa | - | - | - | - |
| 1777633400 | 21.67° C | 29% | 1026 hPa | - | - | - | - |
| 1777632366 | 22.78° C | 26% | 1026 hPa | - | - | - | - |
| 1777631317 | 22.22° C | 28% | 1026 hPa | - | - | - | - |
| 1777630337 | 23.33° C | 26% | 1026 hPa | - | - | - | - |
| 1777629227 | 23.33° C | 26% | 1026 hPa | - | - | - | - |
| 1777628029 | 25° C | 24% | 1026 hPa | - | - | - | - |
| 1777626845 | 25° C | 24% | 1026 hPa | - | - | - | - |
| 1777625784 | 23.89° C | 26% | 1026 hPa | - | - | - | - |
| 1777624795 | 22.78° C | 26% | 1026 hPa | - | - | - | - |
| 1777623635 | 21.67° C | 28% | 1026 hPa | - | - | - | - |
| 1777622502 | 22.22° C | 27% | 1026 hPa | - | - | - | - |
| 1777621531 | 21.11° C | 29% | 1027 hPa | - | - | - | - |
| 1777620493 | 20° C | 30% | 1027 hPa | - | - | - | - |
* Rain since midnight (hover to see other rain measurements)
** Current wind speed in m/s (hover to see current wind gust speed)